Time;durP1;ratioP1;P1;durP2;ratioP2;P2;SDS_P1;SDS_P2;PMS_P1;PMS_P2;Temp;Humidity;BMP_temperature;BMP_pressure;BME280_temperature;BME280_humidity;BME280_pressure;Samples;Min_cycle;Max_cycle;Signal;HPM_P1;HPM_P2
2021/03/19 00:01:22;;;;;;;26.20;11.20;;;;;;;;;;5003132;28;20141;-78
2021/03/19 00:03:49;;;;;;;26.67;10.38;;;;;;;;;;5006883;28;20050;-79
2021/03/19 00:06:17;;;;;;;26.63;11.20;;;;;;;;;;5003416;28;20108;-79
2021/03/19 00:08:44;;;;;;;24.00;9.98;;;;;;;;;;5004921;28;20081;-78
2021/03/19 00:11:11;;;;;;;30.88;11.20;;;;;;;;;;5010269;28;20694;-79
2021/03/19 00:13:38;;;;;;;22.50;11.00;;;;;;;;;;5011248;28;20112;-78
2021/03/19 00:16:05;;;;;;;29.30;10.93;;;;;;;;;;5011825;28;20054;-78
2021/03/19 00:18:33;;;;;;;33.60;10.00;;;;;;;;;;5009258;28;20133;-79
2021/03/19 00:20:59;;;;;;;21.30;9.60;;;;;;;;;;5009487;28;20053;-79
2021/03/19 00:23:26;;;;;;;32.45;11.18;;;;;;;;;;5010154;28;20057;-78
2021/03/19 00:25:53;;;;;;;31.90;10.25;;;;;;;;;;4997750;28;20054;-78
2021/03/19 00:28:20;;;;;;;30.17;10.85;;;;;;;;;;4996577;28;20643;-78
2021/03/19 00:30:47;;;;;;;22.08;10.18;;;;;;;;;;5009524;28;20494;-78
2021/03/19 00:33:14;;;;;;;26.45;10.98;;;;;;;;;;5003991;28;20077;-78
2021/03/19 00:35:42;;;;;;;27.80;10.77;;;;;;;;;;4998175;28;20050;-78
2021/03/19 00:38:09;;;;;;;25.42;10.48;;;;;;;;;;5006908;28;20089;-78
2021/03/19 00:40:36;;;;;;;25.85;11.23;;;;;;;;;;4992882;28;20101;-79
2021/03/19 00:43:04;;;;;;;50.58;10.57;;;;;;;;;;5010726;28;20418;-78
2021/03/19 00:45:31;;;;;;;32.67;10.77;;;;;;;;;;5010117;28;20087;-78
2021/03/19 00:47:58;;;;;;;27.30;11.25;;;;;;;;;;5010042;28;20080;-78
2021/03/19 00:50:29;;;;;;;32.35;11.57;;;;;;;;;;4993571;28;20043;-79
2021/03/19 00:52:56;;;;;;;28.63;11.82;;;;;;;;;;4993492;28;20097;-78
2021/03/19 00:55:23;;;;;;;29.40;12.10;;;;;;;;;;5003157;28;20152;-78
2021/03/19 00:57:50;;;;;;;33.72;12.57;;;;;;;;;;4996647;28;20054;-78
2021/03/19 01:00:18;;;;;;;24.40;12.13;;;;;;;;;;5007833;28;20073;-79
2021/03/19 01:02:45;;;;;;;30.27;12.00;;;;;;;;;;4990096;28;20105;-78
2021/03/19 01:05:17;;;;;;;33.03;11.30;;;;;;;;;;4998911;28;20054;-78
2021/03/19 01:07:44;;;;;;;27.17;11.15;;;;;;;;;;5008490;28;20081;-79
2021/03/19 01:10:11;;;;;;;29.55;11.63;;;;;;;;;;5000007;28;20053;-78
2021/03/19 01:12:38;;;;;;;28.25;11.35;;;;;;;;;;4988668;28;20054;-79
2021/03/19 01:15:07;;;;;;;35.15;11.57;;;;;;;;;;4998514;28;20054;-78
2021/03/19 01:17:34;;;;;;;33.72;12.15;;;;;;;;;;5010013;28;20139;-78
2021/03/19 01:20:01;;;;;;;28.50;10.43;;;;;;;;;;5000836;28;20061;-78
2021/03/19 01:22:29;;;;;;;30.40;11.10;;;;;;;;;;5009951;28;20156;-78
2021/03/19 01:24:55;;;;;;;37.55;13.23;;;;;;;;;;4997644;28;20436;-78
2021/03/19 01:27:22;;;;;;;28.30;12.65;;;;;;;;;;5008171;28;20046;-78
2021/03/19 01:29:49;;;;;;;33.78;12.77;;;;;;;;;;5003282;28;20084;-78
2021/03/19 01:32:15;;;;;;;36.08;13.40;;;;;;;;;;4997363;28;20133;-78
2021/03/19 01:34:42;;;;;;;34.28;13.68;;;;;;;;;;5007134;28;20077;-78
2021/03/19 01:37:09;;;;;;;33.03;12.63;;;;;;;;;;5006858;28;20046;-78
2021/03/19 01:39:36;;;;;;;26.45;11.73;;;;;;;;;;4998763;28;20124;-78
2021/03/19 01:42:03;;;;;;;32.72;13.77;;;;;;;;;;4988415;28;20113;-78
2021/03/19 01:44:50;;;;;;;34.53;13.32;;;;;;;;;;4997778;28;20129;-79
2021/03/19 01:47:52;;;;;;;39.88;12.50;;;;;;;;;;5008431;28;20092;-78
2021/03/19 01:50:37;;;;;;;32.63;14.65;;;;;;;;;;4928285;29;20047;-78
2021/03/19 01:53:04;;;;;;;;;;;;;;;;;;5003725;28;20153;-78
2021/03/19 01:55:49;;;;;;;32.38;11.73;;;;;;;;;;5004666;28;20521;-78
2021/03/19 01:58:35;;;;;;;28.60;12.02;;;;;;;;;;5008002;28;20053;-78
2021/03/19 02:01:20;;;;;;;27.55;11.75;;;;;;;;;;4992251;28;20139;-78
2021/03/19 02:04:06;;;;;;;28.65;11.85;;;;;;;;;;4989856;28;20090;-78
2021/03/19 02:06:51;;;;;;;38.25;12.02;;;;;;;;;;5008500;28;20050;-78
2021/03/19 02:09:18;;;;;;;;;;;;;;;;;;5003235;28;20046;-78
2021/03/19 02:12:03;;;;;;;30.02;11.73;;;;;;;;;;4989489;28;20293;-78
2021/03/19 02:14:49;;;;;;;35.42;12.55;;;;;;;;;;5007442;28;20089;-78
2021/03/19 02:17:34;;;;;;;32.75;12.45;;;;;;;;;;5008593;28;20045;-78
2021/03/19 02:20:20;;;;;;;37.33;14.25;;;;;;;;;;5006108;28;20053;-78
2021/03/19 02:23:05;;;;;;;37.03;12.80;;;;;;;;;;5005511;28;20142;-78
2021/03/19 02:25:32;;;;;;;;;;;;;;;;;;4995186;28;20136;-78
2021/03/19 02:28:19;;;;;;;31.65;13.00;;;;;;;;;;4995959;28;20012;-78
2021/03/19 02:31:04;;;;;;;37.20;15.38;;;;;;;;;;4988555;28;20038;-77
2021/03/19 02:33:33;;;;;;;32.67;13.50;;;;;;;;;;4988335;28;20672;-78
2021/03/19 02:36:00;;;;;;;34.60;12.75;;;;;;;;;;4989616;28;20050;-78
2021/03/19 02:38:27;;;;;;;36.55;12.45;;;;;;;;;;4987871;28;20880;-78
2021/03/19 02:40:55;;;;;;;30.58;12.98;;;;;;;;;;4992414;28;20646;-76
2021/03/19 02:43:24;;;;;;;31.77;13.50;;;;;;;;;;5007946;28;20081;-75
2021/03/19 02:45:51;;;;;;;41.22;15.05;;;;;;;;;;5004716;28;20471;-75
2021/03/19 02:48:18;;;;;;;38.10;15.05;;;;;;;;;;4988795;28;20432;-75
2021/03/19 02:50:45;;;;;;;31.45;13.63;;;;;;;;;;4989875;28;20144;-75
2021/03/19 02:53:23;;;;;;;35.15;15.00;;;;;;;;;;5001242;28;20436;-75
2021/03/19 02:55:50;;;;;;;38.40;14.98;;;;;;;;;;5007390;28;20092;-75
2021/03/19 02:58:17;;;;;;;40.20;16.00;;;;;;;;;;5007752;28;20518;-76
2021/03/19 03:00:44;;;;;;;36.63;15.50;;;;;;;;;;5002597;28;20124;-75
2021/03/19 03:03:13;;;;;;;34.75;14.88;;;;;;;;;;4994918;28;20065;-75
2021/03/19 03:05:40;;;;;;;41.45;15.15;;;;;;;;;;4999364;28;20050;-75
2021/03/19 03:08:07;;;;;;;42.53;15.85;;;;;;;;;;5008764;28;20053;-75
2021/03/19 03:10:35;;;;;;;36.28;16.17;;;;;;;;;;5005144;28;20081;-75
2021/03/19 03:13:06;;;;;;;34.95;14.32;;;;;;;;;;4987945;28;20348;-75
2021/03/19 03:15:34;;;;;;;34.38;14.15;;;;;;;;;;4990755;28;20557;-75
2021/03/19 03:18:01;;;;;;;36.80;14.93;;;;;;;;;;4994604;28;20509;-75
2021/03/19 03:20:30;;;;;;;39.25;14.13;;;;;;;;;;4996036;28;20053;-76
2021/03/19 03:22:57;;;;;;;30.90;13.43;;;;;;;;;;5011387;28;20081;-75
2021/03/19 03:25:24;;;;;;;42.60;13.73;;;;;;;;;;5011715;28;20050;-76
2021/03/19 03:27:52;;;;;;;37.80;13.43;;;;;;;;;;5009968;28;20126;-75
2021/03/19 03:30:21;;;;;;;37.25;12.23;;;;;;;;;;4994208;28;20054;-76
2021/03/19 03:32:48;;;;;;;34.08;13.25;;;;;;;;;;5007373;28;20085;-75
2021/03/19 03:35:16;;;;;;;38.28;14.25;;;;;;;;;;5011845;28;20050;-76
2021/03/19 03:37:43;;;;;;;27.85;12.52;;;;;;;;;;4991250;28;20050;-76
2021/03/19 03:40:11;;;;;;;27.42;13.20;;;;;;;;;;5007919;28;20112;-75
2021/03/19 03:42:38;;;;;;;36.95;14.38;;;;;;;;;;4998321;28;20062;-75
2021/03/19 03:45:06;;;;;;;44.13;14.88;;;;;;;;;;5003352;28;20074;-75
2021/03/19 03:47:33;;;;;;;41.38;15.30;;;;;;;;;;4991883;28;20058;-75
2021/03/19 03:50:00;;;;;;;38.88;15.38;;;;;;;;;;4996695;28;20063;-75
2021/03/19 03:52:27;;;;;;;36.53;14.60;;;;;;;;;;5001466;28;20101;-75
2021/03/19 03:54:54;;;;;;;36.67;15.30;;;;;;;;;;4992562;28;20550;-75
2021/03/19 03:57:21;;;;;;;31.02;13.98;;;;;;;;;;4994116;28;20108;-75
2021/03/19 03:59:47;;;;;;;59.28;18.08;;;;;;;;;;5009439;28;20471;-75
2021/03/19 04:02:21;;;;;;;37.22;15.70;;;;;;;;;;4995287;28;20077;-76
2021/03/19 04:04:49;;;;;;;41.60;17.05;;;;;;;;;;4994117;28;20065;-76
2021/03/19 04:07:16;;;;;;;51.45;17.05;;;;;;;;;;4991626;28;20097;-77
2021/03/19 04:09:43;;;;;;;43.95;16.15;;;;;;;;;;4998326;28;20743;-76
2021/03/19 04:12:11;;;;;;;40.55;16.33;;;;;;;;;;4989756;28;20053;-76
2021/03/19 04:14:38;;;;;;;48.63;17.48;;;;;;;;;;4997806;28;20054;-76
2021/03/19 04:17:08;;;;;;;54.55;19.27;;;;;;;;;;5008284;28;20134;-76
2021/03/19 04:19:36;;;;;;;42.35;17.80;;;;;;;;;;5002104;28;20101;-76
2021/03/19 04:22:04;;;;;;;45.60;17.50;;;;;;;;;;5003075;28;20046;-78
2021/03/19 04:24:31;;;;;;;55.13;18.67;;;;;;;;;;4991579;28;20062;-78
2021/03/19 04:26:57;;;;;;;46.75;19.25;;;;;;;;;;5003051;28;20050;-78
2021/03/19 04:29:24;;;;;;;49.42;18.63;;;;;;;;;;4991878;28;20077;-78
2021/03/19 04:31:51;;;;;;;44.40;19.27;;;;;;;;;;4993713;28;20116;-78
2021/03/19 04:34:18;;;;;;;46.85;18.98;;;;;;;;;;4989284;28;20062;-78
2021/03/19 04:36:48;;;;;;;41.88;19.00;;;;;;;;;;4991338;28;20133;-78
2021/03/19 04:39:18;;;;;;;44.40;19.13;;;;;;;;;;4996084;28;20486;-78
2021/03/19 04:41:47;;;;;;;49.40;19.05;;;;;;;;;;4999013;28;20046;-78
2021/03/19 04:44:14;;;;;;;47.78;19.55;;;;;;;;;;4989371;28;20173;-78
2021/03/19 04:46:41;;;;;;;51.42;20.73;;;;;;;;;;4999175;28;20089;-78
2021/03/19 04:49:11;;;;;;;46.22;19.05;;;;;;;;;;4996411;28;20066;-78
2021/03/19 04:51:38;;;;;;;53.75;18.45;;;;;;;;;;5000419;28;20046;-78
2021/03/19 04:54:07;;;;;;;52.67;21.10;;;;;;;;;;4999987;28;20085;-78
2021/03/19 04:56:34;;;;;;;49.55;19.48;;;;;;;;;;5005927;28;20197;-78
2021/03/19 04:59:01;;;;;;;38.40;18.08;;;;;;;;;;5005241;28;20070;-78
2021/03/19 05:01:28;;;;;;;48.85;19.92;;;;;;;;;;4991483;28;20054;-78
2021/03/19 05:03:55;;;;;;;45.42;18.50;;;;;;;;;;4994222;28;20053;-78
2021/03/19 05:06:22;;;;;;;48.83;20.15;;;;;;;;;;4993003;28;20085;-78
2021/03/19 05:08:49;;;;;;;44.53;19.45;;;;;;;;;;4992783;28;20705;-77
2021/03/19 05:11:16;;;;;;;49.00;19.98;;;;;;;;;;5002367;28;20585;-78
2021/03/19 05:13:43;;;;;;;65.82;20.90;;;;;;;;;;5002524;28;20707;-77
2021/03/19 05:16:10;;;;;;;49.17;21.75;;;;;;;;;;4999679;28;20077;-78
2021/03/19 05:18:37;;;;;;;57.20;21.42;;;;;;;;;;4999612;28;20052;-78
2021/03/19 05:21:04;;;;;;;54.40;22.00;;;;;;;;;;5005047;28;20129;-78
2021/03/19 05:23:33;;;;;;;51.03;21.30;;;;;;;;;;5010098;28;20108;-78
2021/03/19 05:26:00;;;;;;;57.25;21.73;;;;;;;;;;5010119;28;20116;-78
2021/03/19 05:28:27;;;;;;;53.63;22.42;;;;;;;;;;5000522;28;20084;-78
2021/03/19 05:30:54;;;;;;;51.90;21.30;;;;;;;;;;4997172;28;20129;-78
2021/03/19 05:33:22;;;;;;;57.65;22.98;;;;;;;;;;4994148;28;20135;-78
2021/03/19 05:35:50;;;;;;;50.53;20.15;;;;;;;;;;5000877;28;20053;-77
2021/03/19 05:38:17;;;;;;;44.35;20.73;;;;;;;;;;4989597;28;20061;-78
2021/03/19 05:40:50;;;;;;;53.80;20.95;;;;;;;;;;4998542;28;20119;-78
2021/03/19 05:43:23;;;;;;;49.05;19.38;;;;;;;;;;5009025;28;20053;-78
2021/03/19 05:45:56;;;;;;;45.13;19.90;;;;;;;;;;5002691;28;20735;-78
2021/03/19 05:48:24;;;;;;;60.95;19.48;;;;;;;;;;4989937;28;20046;-78
2021/03/19 05:50:51;;;;;;;55.22;20.33;;;;;;;;;;4998922;28;20128;-78
2021/03/19 05:53:19;;;;;;;46.17;21.50;;;;;;;;;;4995969;28;20050;-77
2021/03/19 05:55:46;;;;;;;54.42;22.10;;;;;;;;;;5002073;28;20107;-77
2021/03/19 05:58:30;;;;;;;52.92;22.00;;;;;;;;;;4991461;28;20169;-79
2021/03/19 06:00:58;;;;;;;52.35;21.85;;;;;;;;;;4991776;28;20124;-80
2021/03/19 06:03:26;;;;;;;52.90;22.95;;;;;;;;;;5002161;28;20140;-79
2021/03/19 06:05:58;;;;;;;60.53;22.10;;;;;;;;;;4988978;28;20050;-78
2021/03/19 06:08:32;;;;;;;62.70;22.02;;;;;;;;;;4990999;28;20084;-78
2021/03/19 06:11:20;;;;;;;50.45;21.25;;;;;;;;;;5009347;28;20082;-80
2021/03/19 06:13:47;;;;;;;55.97;20.98;;;;;;;;;;5000155;28;20136;-78
2021/03/19 06:16:18;;;;;;;45.55;20.55;;;;;;;;;;4989589;28;20628;-78
2021/03/19 06:18:47;;;;;;;48.47;20.80;;;;;;;;;;4989679;28;20043;-79
2021/03/19 06:21:20;;;;;;;47.55;18.77;;;;;;;;;;4987789;28;20154;-79
2021/03/19 06:23:59;;;;;;;45.95;19.55;;;;;;;;;;4987992;28;20054;-80
2021/03/19 06:26:27;;;;;;;56.38;20.77;;;;;;;;;;4989766;28;20082;-81
2021/03/19 06:29:27;;;;;;;54.38;20.75;;;;;;;;;;4990724;28;20050;-81
2021/03/19 06:32:13;;;;;;;40.67;19.02;;;;;;;;;;4949363;28;20065;-79
2021/03/19 06:34:59;;;;;;;47.20;18.05;;;;;;;;;;4990532;28;20060;-79
2021/03/19 06:37:28;;;;;;;47.88;19.27;;;;;;;;;;4988517;28;20061;-78
2021/03/19 06:39:56;;;;;;;56.95;18.88;;;;;;;;;;4987940;28;20419;-78
2021/03/19 06:42:23;;;;;;;38.70;14.65;;;;;;;;;;4986261;28;20094;-78
2021/03/19 06:45:06;;;;;;;37.78;14.07;;;;;;;;;;4987961;28;20050;-78
2021/03/19 06:47:38;;;;;;;50.42;12.68;;;;;;;;;;4988134;28;20046;-78
2021/03/19 06:50:06;;;;;;;34.00;12.57;;;;;;;;;;4987472;28;20064;-78
2021/03/19 06:52:34;;;;;;;30.45;12.02;;;;;;;;;;4986003;28;20069;-78
2021/03/19 06:55:30;;;;;;;29.95;12.27;;;;;;;;;;4987919;28;20836;-78
2021/03/19 06:57:57;;;;;;;31.85;12.45;;;;;;;;;;4991094;28;20185;-78
2021/03/19 07:00:36;;;;;;;26.38;10.00;;;;;;;;;;4992762;28;20081;-78
2021/03/19 07:03:10;;;;;;;29.00;11.38;;;;;;;;;;4992980;28;20051;-78
2021/03/19 07:05:40;;;;;;;24.55;10.27;;;;;;;;;;4992713;28;20093;-78
2021/03/19 07:08:17;;;;;;;28.88;11.02;;;;;;;;;;4993047;28;20085;-78
2021/03/19 07:10:50;;;;;;;34.05;11.32;;;;;;;;;;4991627;28;20156;-78
2021/03/19 07:13:35;;;;;;;28.45;10.40;;;;;;;;;;4993528;28;20093;-78
2021/03/19 07:16:17;;;;;;;31.95;11.75;;;;;;;;;;4992641;28;20046;-78
2021/03/19 07:18:52;;;;;;;29.48;10.77;;;;;;;;;;4992282;28;20506;-78
2021/03/19 07:21:22;;;;;;;28.40;10.75;;;;;;;;;;4992465;28;20178;-78
2021/03/19 07:24:06;;;;;;;22.30;10.30;;;;;;;;;;4992403;28;20566;-78
2021/03/19 07:26:39;;;;;;;32.83;11.85;;;;;;;;;;4992485;28;20956;-78
2021/03/19 07:29:23;;;;;;;23.75;10.02;;;;;;;;;;4990518;28;20137;-78
2021/03/19 07:32:09;;;;;;;31.25;10.52;;;;;;;;;;4991615;28;20662;-77
2021/03/19 07:35:00;;;;;;;21.38;9.45;;;;;;;;;;4991376;28;20052;-77
2021/03/19 07:37:53;;;;;;;20.67;10.15;;;;;;;;;;4990596;28;20498;-77
2021/03/19 07:40:23;;;;;;;26.15;10.45;;;;;;;;;;4991472;28;20089;-78
2021/03/19 07:43:14;;;;;;;18.35;9.23;;;;;;;;;;4991774;28;20104;-78
2021/03/19 07:45:41;;;;;;;20.35;9.68;;;;;;;;;;4990644;28;20097;-78
2021/03/19 07:48:19;;;;;;;20.20;8.40;;;;;;;;;;4992004;28;20042;-78
2021/03/19 07:50:46;;;;;;;23.15;8.55;;;;;;;;;;4991668;28;20050;-78
2021/03/19 07:53:21;;;;;;;16.90;8.60;;;;;;;;;;4991559;28;20050;-78
2021/03/19 07:56:06;;;;;;;23.70;8.43;;;;;;;;;;4990986;28;20054;-77
2021/03/19 07:58:36;;;;;;;22.02;8.05;;;;;;;;;;4990797;28;20544;-78
2021/03/19 08:01:11;;;;;;;19.70;7.85;;;;;;;;;;4990481;28;20062;-78
2021/03/19 08:03:39;;;;;;;32.00;12.10;;;;;;;;;;4989794;28;20046;-78
2021/03/19 08:06:11;;;;;;;16.35;7.78;;;;;;;;;;4990703;28;20046;-77
2021/03/19 08:08:43;;;;;;;12.73;5.72;;;;;;;;;;4990161;28;20121;-78
2021/03/19 08:11:10;;;;;;;12.32;5.07;;;;;;;;;;4991649;28;20125;-77
2021/03/19 08:13:43;;;;;;;15.07;4.95;;;;;;;;;;4990129;28;20145;-77
2021/03/19 08:16:14;;;;;;;11.40;5.22;;;;;;;;;;4991466;28;20546;-78
2021/03/19 08:18:46;;;;;;;8.77;3.78;;;;;;;;;;4989962;28;20141;-77
2021/03/19 08:21:20;;;;;;;11.93;4.03;;;;;;;;;;4991003;28;20169;-78
2021/03/19 08:23:59;;;;;;;10.10;3.42;;;;;;;;;;4989918;28;20564;-78
2021/03/19 08:27:02;;;;;;;17.38;3.70;;;;;;;;;;4991360;28;20050;-78
2021/03/19 08:29:37;;;;;;;12.90;3.42;;;;;;;;;;4968690;28;20156;-78
2021/03/19 08:32:27;;;;;;;9.48;3.33;;;;;;;;;;4989719;28;20101;-78
2021/03/19 08:35:13;;;;;;;10.50;2.40;;;;;;;;;;4985777;28;20058;-78
2021/03/19 08:37:55;;;;;;;13.40;2.88;;;;;;;;;;4991305;28;20081;-78
2021/03/19 08:40:28;;;;;;;7.68;1.80;;;;;;;;;;4991076;28;20054;-78
2021/03/19 08:42:57;;;;;;;9.55;2.22;;;;;;;;;;4989740;28;20061;-78
2021/03/19 08:45:25;;;;;;;7.53;2.15;;;;;;;;;;4991220;28;20130;-78
2021/03/19 08:47:53;;;;;;;6.63;1.92;;;;;;;;;;4989413;28;20082;-78
2021/03/19 08:50:26;;;;;;;11.15;2.00;;;;;;;;;;4989926;28;20052;-78
2021/03/19 08:53:13;;;;;;;11.32;2.60;;;;;;;;;;4990819;28;20139;-78
2021/03/19 08:55:48;;;;;;;7.25;2.33;;;;;;;;;;4990884;28;20054;-78
2021/03/19 08:58:35;;;;;;;12.70;3.35;;;;;;;;;;4990551;28;20089;-78
2021/03/19 09:01:06;;;;;;;10.13;2.00;;;;;;;;;;4990866;28;20061;-78
2021/03/19 09:03:40;;;;;;;7.80;2.28;;;;;;;;;;4990931;28;20400;-78
2021/03/19 09:06:13;;;;;;;8.18;2.17;;;;;;;;;;4991029;28;20054;-78
2021/03/19 09:08:44;;;;;;;8.30;1.98;;;;;;;;;;4990818;28;20057;-78
2021/03/19 09:11:13;;;;;;;9.00;2.53;;;;;;;;;;4990674;28;20137;-78
2021/03/19 09:14:00;;;;;;;6.80;1.85;;;;;;;;;;4990694;28;20105;-78
2021/03/19 09:16:44;;;;;;;5.05;1.52;;;;;;;;;;4990440;28;20074;-77
2021/03/19 09:19:40;;;;;;;31.77;6.83;;;;;;;;;;4989021;28;20185;-78
2021/03/19 09:22:22;;;;;;;6.35;2.35;;;;;;;;;;4990737;28;20054;-77
2021/03/19 09:25:16;;;;;;;12.10;2.45;;;;;;;;;;4990499;28;20063;-78
2021/03/19 09:28:06;;;;;;;12.30;2.30;;;;;;;;;;4990541;28;20112;-77
2021/03/19 09:30:42;;;;;;;17.77;2.65;;;;;;;;;;4988822;28;20169;-78
2021/03/19 09:33:11;;;;;;;12.43;2.20;;;;;;;;;;4990398;28;20104;-78
2021/03/19 09:35:39;;;;;;;6.78;2.35;;;;;;;;;;4990033;28;20050;-78
2021/03/19 09:38:12;;;;;;;14.55;2.25;;;;;;;;;;4990534;28;20089;-77
2021/03/19 09:40:42;;;;;;;11.55;2.70;;;;;;;;;;4989882;28;20101;-78
2021/03/19 09:43:10;;;;;;;11.18;2.92;;;;;;;;;;4990286;28;20085;-77
2021/03/19 09:45:39;;;;;;;12.23;3.15;;;;;;;;;;4989775;28;20112;-77
2021/03/19 09:48:12;;;;;;;14.75;2.65;;;;;;;;;;4990557;28;20526;-78
2021/03/19 09:50:48;;;;;;;8.07;2.67;;;;;;;;;;4989940;28;20058;-77
2021/03/19 09:53:15;;;;;;;11.00;2.40;;;;;;;;;;4988735;28;20046;-78
2021/03/19 09:55:44;;;;;;;10.05;2.38;;;;;;;;;;4989997;28;20053;-77
2021/03/19 09:58:18;;;;;;;7.30;2.72;;;;;;;;;;4990151;28;20100;-78
2021/03/19 10:00:53;;;;;;;9.55;3.03;;;;;;;;;;4989664;28;20093;-77
2021/03/19 10:03:20;;;;;;;;;;;;;;;;;;4990386;28;20069;-78
2021/03/19 10:05:49;;;;;;;8.52;2.53;;;;;;;;;;4988661;28;19925;-78
2021/03/19 10:08:36;;;;;;;8.50;2.35;;;;;;;;;;4989784;28;20046;-77
2021/03/19 10:11:05;;;;;;;7.13;2.35;;;;;;;;;;4989535;28;20078;-77
2021/03/19 10:13:32;;;;;;;6.95;2.33;;;;;;;;;;4989804;28;20456;-77
2021/03/19 10:15:59;;;;;;;6.65;2.38;;;;;;;;;;4989636;28;20114;-77
2021/03/19 10:18:34;;;;;;;6.65;2.30;;;;;;;;;;4988274;28;20050;-78
2021/03/19 10:21:18;;;;;;;12.80;3.05;;;;;;;;;;4989492;28;20055;-79
2021/03/19 10:23:53;;;;;;;13.93;3.10;;;;;;;;;;4989547;28;20058;-78
2021/03/19 10:26:27;;;;;;;8.65;2.20;;;;;;;;;;4988491;28;20058;-78
2021/03/19 10:29:07;;;;;;;10.53;2.17;;;;;;;;;;4988250;28;20586;-78
2021/03/19 10:31:38;;;;;;;8.57;2.25;;;;;;;;;;4989636;28;20074;-79
2021/03/19 10:34:07;;;;;;;12.95;3.03;;;;;;;;;;4993566;28;20101;-78
2021/03/19 10:36:43;;;;;;;11.65;2.75;;;;;;;;;;4992442;28;20046;-79
2021/03/19 10:39:13;;;;;;;9.18;3.03;;;;;;;;;;4992169;28;20086;-77
2021/03/19 10:41:43;;;;;;;6.18;2.08;;;;;;;;;;4993403;28;20054;-78
2021/03/19 10:44:09;;;;;;;11.85;2.50;;;;;;;;;;4993225;28;20050;-78
2021/03/19 10:46:36;;;;;;;8.52;2.78;;;;;;;;;;4993286;28;20058;-78
2021/03/19 10:49:12;;;;;;;5.45;2.45;;;;;;;;;;4993227;28;20128;-78
2021/03/19 10:51:51;;;;;;;15.18;2.60;;;;;;;;;;4993037;28;20042;-78
2021/03/19 10:54:33;;;;;;;8.50;2.60;;;;;;;;;;4993289;28;20065;-78
2021/03/19 10:57:02;;;;;;;6.93;1.90;;;;;;;;;;4993037;28;20145;-77
2021/03/19 10:59:29;;;;;;;5.75;1.90;;;;;;;;;;4993090;28;20097;-78
2021/03/19 11:01:56;;;;;;;11.38;3.58;;;;;;;;;;4991780;28;20046;-78
2021/03/19 11:04:30;;;;;;;7.05;2.45;;;;;;;;;;4993166;28;20096;-78
2021/03/19 11:06:57;;;;;;;7.55;2.10;;;;;;;;;;4993141;28;20145;-78
2021/03/19 11:09:25;;;;;;;4.47;2.00;;;;;;;;;;4992680;28;20078;-78
2021/03/19 11:11:59;;;;;;;14.68;2.00;;;;;;;;;;4993146;28;20778;-78
2021/03/19 11:14:27;;;;;;;10.10;2.50;;;;;;;;;;4995011;28;20104;-77
2021/03/19 11:16:56;;;;;;;7.32;3.78;;;;;;;;;;4993755;28;20463;-78
2021/03/19 11:19:28;;;;;;;8.57;2.20;;;;;;;;;;4992610;28;20447;-78
2021/03/19 11:22:06;;;;;;;5.75;2.20;;;;;;;;;;4993257;28;20109;-78
2021/03/19 11:24:39;;;;;;;4.28;1.90;;;;;;;;;;4993405;28;20090;-78
2021/03/19 11:27:09;;;;;;;8.88;2.08;;;;;;;;;;4991664;28;20089;-78
2021/03/19 11:29:36;;;;;;;10.57;2.45;;;;;;;;;;4993123;28;20050;-78
2021/03/19 11:32:05;;;;;;;7.63;2.42;;;;;;;;;;4992733;28;20061;-78
2021/03/19 11:34:34;;;;;;;8.60;2.50;;;;;;;;;;4992295;28;20100;-78
2021/03/19 11:37:15;;;;;;;6.60;2.08;;;;;;;;;;4992491;28;20149;-78
2021/03/19 11:39:55;;;;;;;10.25;2.22;;;;;;;;;;4991161;28;20411;-78
2021/03/19 11:42:22;;;;;;;7.05;2.88;;;;;;;;;;4991548;28;20687;-79
2021/03/19 11:44:50;;;;;;;11.02;3.38;;;;;;;;;;4991835;28;20081;-78
2021/03/19 11:47:19;;;;;;;6.78;2.17;;;;;;;;;;4992782;28;20077;-79
2021/03/19 11:49:47;;;;;;;9.32;2.72;;;;;;;;;;4991750;28;20474;-79
2021/03/19 11:52:16;;;;;;;5.25;2.15;;;;;;;;;;4992335;28;20497;-78
2021/03/19 11:54:42;;;;;;;13.20;2.42;;;;;;;;;;4992852;28;20050;-78
2021/03/19 11:57:10;;;;;;;5.28;2.00;;;;;;;;;;4992020;28;20504;-78
2021/03/19 11:59:37;;;;;;;5.10;2.15;;;;;;;;;;4991781;28;20745;-78
2021/03/19 12:02:22;;;;;;;7.25;2.20;;;;;;;;;;4992085;28;20097;-78
2021/03/19 12:04:49;;;;;;;10.85;2.38;;;;;;;;;;4992227;28;20058;-78
2021/03/19 12:07:16;;;;;;;4.13;1.80;;;;;;;;;;4992101;28;20081;-78
2021/03/19 12:09:44;;;;;;;10.27;1.88;;;;;;;;;;4991358;28;20090;-78
2021/03/19 12:12:15;;;;;;;6.47;1.92;;;;;;;;;;4991659;28;20057;-78
2021/03/19 12:14:41;;;;;;;4.72;1.50;;;;;;;;;;4991993;28;20050;-78
2021/03/19 12:17:09;;;;;;;8.52;1.92;;;;;;;;;;4991292;28;20478;-78
2021/03/19 12:19:36;;;;;;;6.85;1.75;;;;;;;;;;4991586;28;20077;-78
2021/03/19 12:22:03;;;;;;;10.13;1.58;;;;;;;;;;4991709;28;20058;-78
2021/03/19 12:24:34;;;;;;;4.28;1.83;;;;;;;;;;4991319;28;20062;-78
2021/03/19 12:27:01;;;;;;;7.32;2.00;;;;;;;;;;4989693;28;20667;-78
2021/03/19 12:29:34;;;;;;;6.60;1.63;;;;;;;;;;4991394;28;20088;-78
2021/03/19 12:32:01;;;;;;;7.53;2.08;;;;;;;;;;4989917;28;20495;-78
2021/03/19 12:34:28;;;;;;;5.72;1.77;;;;;;;;;;4991656;28;20053;-78
2021/03/19 12:36:55;;;;;;;6.35;1.50;;;;;;;;;;4991143;28;20112;-78
2021/03/19 12:39:22;;;;;;;4.65;1.70;;;;;;;;;;4991287;28;20474;-78
2021/03/19 12:41:49;;;;;;;3.95;1.35;;;;;;;;;;4991347;28;20140;-78
2021/03/19 12:44:16;;;;;;;6.70;1.40;;;;;;;;;;4991593;28;20058;-78
2021/03/19 12:46:43;;;;;;;3.60;1.70;;;;;;;;;;4991070;28;20458;-78
2021/03/19 12:49:10;;;;;;;5.82;2.47;;;;;;;;;;4989444;28;20553;-77
2021/03/19 12:51:37;;;;;;;13.40;2.88;;;;;;;;;;4991007;28;20081;-78
2021/03/19 12:54:04;;;;;;;6.20;2.20;;;;;;;;;;4989010;28;20086;-78
2021/03/19 12:56:30;;;;;;;5.75;1.85;;;;;;;;;;4991350;28;20133;-78
2021/03/19 12:58:57;;;;;;;13.43;3.40;;;;;;;;;;4989646;28;20054;-78
2021/03/19 13:01:24;;;;;;;3.45;1.35;;;;;;;;;;4989672;28;20093;-78
2021/03/19 13:03:51;;;;;;;10.27;3.40;;;;;;;;;;4991017;28;20061;-78
2021/03/19 13:06:22;;;;;;;5.20;1.65;;;;;;;;;;4990930;28;20114;-78
2021/03/19 13:08:48;;;;;;;5.38;2.13;;;;;;;;;;4989477;28;20105;-78
2021/03/19 13:11:15;;;;;;;4.90;1.90;;;;;;;;;;4990725;28;20384;-78
2021/03/19 13:13:42;;;;;;;3.58;1.55;;;;;;;;;;4990662;28;20152;-78
2021/03/19 13:16:09;;;;;;;5.70;1.33;;;;;;;;;;4990608;28;20454;-78
2021/03/19 13:18:37;;;;;;;7.65;1.65;;;;;;;;;;4990057;28;20068;-78
2021/03/19 13:21:04;;;;;;;4.57;1.33;;;;;;;;;;4988615;28;20054;-78
2021/03/19 13:23:32;;;;;;;6.35;1.83;;;;;;;;;;4990184;28;20145;-78
2021/03/19 13:25:59;;;;;;;11.75;2.10;;;;;;;;;;4990536;28;20635;-78
2021/03/19 13:28:26;;;;;;;4.97;1.33;;;;;;;;;;4990396;28;20116;-78
2021/03/19 13:30:57;;;;;;;2.35;1.13;;;;;;;;;;4988877;28;20053;-78
2021/03/19 13:33:25;;;;;;;7.53;1.98;;;;;;;;;;4990228;28;20554;-79
2021/03/19 13:35:54;;;;;;;12.10;2.03;;;;;;;;;;4989204;28;20520;-78
2021/03/19 13:38:21;;;;;;;5.18;1.88;;;;;;;;;;4989127;28;20050;-78
2021/03/19 13:40:51;;;;;;;6.90;1.30;;;;;;;;;;4989815;28;20509;-78
2021/03/19 13:43:22;;;;;;;10.23;1.95;;;;;;;;;;4990564;28;20054;-80
2021/03/19 13:45:50;;;;;;;6.45;1.45;;;;;;;;;;4998312;28;20483;-79
2021/03/19 13:48:18;;;;;;;7.15;1.73;;;;;;;;;;5001534;28;20046;-80
2021/03/19 13:50:45;;;;;;;8.32;1.30;;;;;;;;;;5000581;28;20069;-79
2021/03/19 13:53:12;;;;;;;6.75;1.70;;;;;;;;;;4999123;28;20069;-78
2021/03/19 13:55:39;;;;;;;7.88;2.08;;;;;;;;;;5000513;28;20462;-80
2021/03/19 13:58:06;;;;;;;10.23;1.05;;;;;;;;;;5002210;28;20096;-79
2021/03/19 14:00:44;;;;;;;5.40;1.42;;;;;;;;;;5000393;28;20756;-76
2021/03/19 14:03:11;;;;;;;13.27;3.83;;;;;;;;;;4998595;28;20057;-78
2021/03/19 14:05:38;;;;;;;2.50;1.05;;;;;;;;;;5000188;28;20582;-79
2021/03/19 14:08:06;;;;;;;4.57;1.05;;;;;;;;;;4997415;28;20057;-79
2021/03/19 14:10:37;;;;;;;3.03;1.00;;;;;;;;;;4999152;28;20403;-80
2021/03/19 14:13:04;;;;;;;5.45;1.38;;;;;;;;;;4997846;28;20073;-81
2021/03/19 14:15:35;;;;;;;6.13;1.48;;;;;;;;;;4997510;28;20569;-79
2021/03/19 14:18:05;;;;;;;4.25;1.77;;;;;;;;;;4998436;28;20172;-78
2021/03/19 14:20:36;;;;;;;6.97;1.65;;;;;;;;;;4998331;28;20097;-78
2021/03/19 14:23:05;;;;;;;1.98;0.95;;;;;;;;;;5001455;28;20050;-78
2021/03/19 14:25:34;;;;;;;5.28;1.20;;;;;;;;;;5001294;28;20141;-79
2021/03/19 14:28:15;;;;;;;4.60;1.42;;;;;;;;;;4995616;28;20357;-80
2021/03/19 14:30:42;;;;;;;5.20;1.30;;;;;;;;;;4996139;28;20057;-80
2021/03/19 14:33:14;;;;;;;7.78;1.42;;;;;;;;;;4999711;28;20772;-78
2021/03/19 14:35:45;;;;;;;6.30;1.58;;;;;;;;;;4999905;28;20073;-78
2021/03/19 14:38:15;;;;;;;6.32;1.92;;;;;;;;;;5000335;28;20469;-78
2021/03/19 14:40:45;;;;;;;3.63;0.90;;;;;;;;;;4998347;28;20101;-78
2021/03/19 14:43:14;;;;;;;4.03;1.08;;;;;;;;;;4998925;28;20046;-78
2021/03/19 14:45:51;;;;;;;4.90;1.10;;;;;;;;;;4998752;28;20423;-79
2021/03/19 14:48:24;;;;;;;5.07;1.20;;;;;;;;;;4997014;28;20895;-79
2021/03/19 14:50:54;;;;;;;3.80;1.85;;;;;;;;;;5002904;28;20453;-79
2021/03/19 14:53:21;;;;;;;4.55;0.95;;;;;;;;;;4995531;28;20136;-79